Terminal Aerodrome Forecast
Issued by NWS Salt Lake City, UT

Home | Current Version | Previous Version | Text Only | Print | Product List | Glossary On
Versions: 1 2 3 4 5 6 7 8 9 10 11 12 13
000
FTUS45 KSLC 260532
TAFCDC
TAF
KCDC 260532Z 2606/2706 20015G25KT P6SM SCT040 SCT080
     FM261600 23012G20KT P6SM SCT040 SCT080
     FM270300 02005KT P6SM SCT040 SCT080=

USA.gov is the U.S. government's official web portal to all federal, state and local government web resources and services.